createdAt,value
2018-12-16T11:36:46.582Z,18.73
2018-12-16T11:39:15.718Z,19.83
2018-12-16T11:41:45.141Z,18.57
2018-12-16T11:46:31.561Z,17.87
2018-12-16T11:49:00.881Z,19.53
2018-12-16T11:51:29.986Z,16.60
2018-12-16T11:53:59.149Z,15.87
2018-12-16T11:56:28.408Z,15.47
2018-12-16T11:58:57.559Z,15.60
2018-12-16T12:01:26.660Z,16.03
2018-12-16T12:03:55.775Z,14.07
2018-12-16T12:06:24.960Z,14.33
2018-12-16T12:08:54.096Z,15.47
2018-12-16T12:11:23.757Z,15.10
2018-12-16T12:13:52.987Z,15.78
2018-12-16T12:16:23.109Z,16.80
2018-12-16T12:19:01.931Z,16.17
2018-12-16T12:21:31.059Z,16.83
2018-12-16T12:24:00.881Z,16.67
2018-12-16T12:26:30.177Z,15.80
2018-12-16T12:29:00.754Z,18.00
2018-12-16T12:31:29.905Z,17.53
2018-12-16T12:33:59.200Z,17.30
2018-12-16T12:36:28.603Z,16.93
2018-12-16T12:38:59.318Z,17.43
2018-12-16T12:41:28.532Z,16.17
2018-12-16T12:43:57.656Z,16.33
2018-12-16T12:46:26.950Z,17.73
2018-12-16T12:48:56.280Z,16.83
2018-12-16T12:51:25.624Z,16.57
2018-12-16T12:55:00.498Z,16.20
2018-12-16T12:57:33.399Z,15.77
2018-12-16T13:00:04.372Z,15.47
2018-12-16T13:02:37.346Z,16.50
2018-12-16T13:05:06.691Z,16.80
2018-12-16T13:07:40.178Z,17.77
2018-12-16T13:10:12.158Z,17.13
2018-12-16T13:12:42.837Z,17.60
2018-12-16T13:15:12.850Z,17.40
2018-12-16T13:17:41.989Z,16.93
2018-12-16T13:20:11.805Z,18.10
2018-12-16T13:22:41.271Z,16.67
2018-12-16T13:25:22.091Z,16.77
2018-12-16T13:27:51.251Z,15.67
2018-12-16T13:30:21.091Z,17.33
2018-12-16T13:32:50.243Z,16.57
2018-12-16T13:35:19.381Z,16.50
2018-12-16T13:37:48.572Z,15.00
2018-12-16T13:40:17.797Z,18.17
2018-12-16T13:42:47.011Z,18.37
2018-12-16T13:45:16.271Z,14.73
2018-12-16T13:47:45.397Z,15.47
2018-12-16T13:50:14.483Z,14.97
2018-12-16T13:52:43.755Z,15.23
2018-12-16T13:55:13.022Z,14.10
2018-12-16T13:57:44.434Z,13.20
2018-12-16T14:00:14.133Z,14.97
2018-12-16T14:02:43.831Z,12.83
2018-12-16T14:05:13.051Z,13.80
2018-12-16T14:07:42.245Z,14.40
2018-12-16T14:10:11.397Z,14.00
2018-12-16T14:12:40.553Z,13.60
2018-12-16T14:15:09.889Z,12.27
2018-12-16T14:17:39.219Z,14.20
2018-12-16T14:20:10.145Z,12.87
2018-12-16T14:22:39.420Z,13.17
2018-12-16T14:25:08.866Z,12.97
2018-12-16T14:27:38.986Z,13.80
2018-12-16T14:30:10.264Z,12.63
2018-12-16T14:32:39.457Z,13.30
2018-12-16T14:35:10.230Z,13.83
2018-12-16T14:37:39.427Z,14.33
2018-12-16T14:40:10.384Z,13.77
2018-12-16T14:42:39.660Z,13.80
2018-12-16T14:45:10.456Z,14.47
2018-12-16T14:47:40.094Z,14.33
2018-12-16T14:50:10.862Z,14.60
2018-12-16T14:52:40.054Z,13.80
2018-12-16T14:55:09.374Z,13.57
2018-12-16T14:57:39.002Z,13.87
2018-12-16T15:00:10.678Z,13.63
2018-12-16T15:02:40.084Z,14.27
2018-12-16T15:05:51.471Z,14.00
2018-12-16T15:08:20.606Z,13.70
2018-12-16T15:10:54.506Z,14.37
2018-12-16T15:13:23.757Z,13.47
2018-12-16T15:15:52.896Z,13.63
2018-12-16T15:18:22.603Z,13.37
2018-12-16T15:20:51.872Z,13.50
2018-12-16T15:23:20.972Z,12.47
2018-12-16T15:25:50.219Z,11.93
2018-12-16T15:28:19.622Z,12.03
2018-12-16T15:30:50.018Z,12.27
2018-12-16T15:33:19.154Z,11.70
2018-12-16T15:35:48.582Z,13.27
2018-12-16T15:38:17.830Z,12.27
2018-12-16T15:40:47.646Z,11.63
2018-12-16T15:43:16.797Z,11.57
2018-12-16T15:45:45.960Z,12.10
2018-12-16T15:48:15.226Z,12.33
2018-12-16T15:50:44.666Z,11.50
2018-12-16T15:53:13.814Z,13.10
2018-12-16T15:55:43.502Z,12.10
2018-12-16T15:58:12.572Z,11.33
2018-12-16T16:00:41.800Z,12.50
2018-12-16T16:03:11.020Z,12.30
2018-12-16T16:05:40.696Z,13.27
2018-12-16T16:08:16.315Z,13.00
2018-12-16T16:10:41.160Z,13.23
2018-12-16T16:13:10.444Z,13.87
2018-12-16T16:15:39.634Z,13.90
2018-12-16T16:18:08.851Z,12.87
2018-12-16T16:20:38.103Z,13.07
2018-12-16T16:23:07.320Z,12.97
2018-12-16T16:25:36.943Z,12.00
2018-12-16T16:28:07.266Z,17.05
2018-12-16T16:30:36.511Z,13.33
2018-12-16T16:33:05.613Z,14.60
2018-12-16T16:35:34.718Z,13.87
2018-12-16T16:38:08.247Z,14.23
2018-12-16T16:40:37.777Z,14.60
2018-12-16T16:43:08.076Z,15.37
2018-12-16T16:45:37.215Z,15.60
2018-12-16T16:48:13.826Z,17.20
2018-12-16T16:50:44.415Z,17.07
2018-12-16T16:55:59.009Z,18.83
2018-12-16T16:58:31.917Z,20.03
2018-12-16T17:01:01.511Z,18.40
2018-12-16T17:03:30.706Z,17.87
2018-12-16T17:06:01.037Z,17.70
2018-12-16T17:08:30.152Z,18.77
2018-12-16T17:10:59.412Z,19.37
2018-12-16T17:13:35.154Z,18.70
2018-12-16T17:16:04.662Z,19.20
2018-12-16T17:18:34.179Z,19.70
2018-12-16T17:21:03.813Z,19.00
2018-12-16T17:23:33.019Z,19.67
2018-12-16T17:26:03.524Z,19.03
2018-12-16T17:28:32.746Z,19.53
2018-12-16T17:31:02.012Z,20.27
2018-12-16T17:33:31.216Z,21.27
2018-12-16T17:36:00.527Z,21.77
2018-12-16T17:38:29.722Z,20.67
2018-12-16T17:40:58.872Z,20.50
2018-12-16T17:43:28.078Z,20.17
2018-12-16T17:45:59.649Z,20.67
2018-12-16T17:48:31.628Z,23.67
2018-12-16T17:51:01.070Z,23.70
2018-12-16T17:53:30.177Z,29.27
2018-12-16T17:55:59.778Z,20.87
2018-12-16T17:58:29.210Z,22.43
2018-12-16T18:00:58.441Z,23.63
2018-12-16T18:03:27.561Z,22.00
2018-12-16T18:05:56.714Z,22.70
2018-12-16T18:08:26.911Z,22.93
2018-12-16T18:10:56.100Z,21.67
2018-12-16T18:13:25.320Z,21.60
2018-12-16T18:15:54.449Z,21.40
2018-12-16T18:18:24.769Z,19.60
2018-12-16T18:20:55.152Z,19.93
2018-12-16T18:23:29.656Z,20.53
2018-12-16T18:25:55.416Z,20.73
2018-12-16T18:28:24.931Z,20.20
2018-12-16T18:30:54.152Z,19.37
2018-12-16T18:33:24.083Z,19.67
2018-12-16T18:36:00.958Z,19.93
2018-12-16T18:38:30.122Z,18.13
2018-12-16T18:40:59.432Z,19.63
2018-12-16T18:43:28.516Z,20.77
2018-12-16T18:45:58.126Z,20.03
2018-12-16T18:48:27.344Z,20.07
2018-12-16T18:50:56.604Z,18.70
2018-12-16T18:53:25.840Z,18.63
2018-12-16T18:55:54.968Z,18.47
2018-12-16T18:58:24.161Z,18.67
2018-12-16T19:00:54.414Z,19.10
2018-12-16T19:03:23.597Z,18.67
2018-12-16T19:05:52.829Z,20.87
2018-12-16T19:08:22.038Z,19.53
2018-12-16T19:10:52.203Z,18.57
2018-12-16T19:13:21.962Z,15.50
2018-12-16T19:15:51.546Z,15.47
2018-12-16T19:18:23.026Z,15.30
2018-12-16T19:20:52.175Z,21.53
2018-12-16T19:23:22.497Z,15.93
2018-12-16T19:25:51.711Z,17.23
2018-12-16T19:28:21.919Z,16.50
2018-12-16T19:30:51.065Z,18.43
2018-12-16T19:33:20.247Z,17.87
2018-12-16T19:35:49.574Z,17.70
2018-12-16T19:38:18.774Z,17.97
2018-12-16T19:40:48.009Z,17.27
2018-12-16T19:43:17.096Z,16.80
2018-12-16T19:45:46.305Z,16.73
2018-12-16T19:48:15.530Z,17.37
2018-12-16T19:50:45.778Z,16.17
2018-12-16T19:53:15.634Z,17.10
2018-12-16T19:55:44.965Z,17.20
2018-12-16T19:58:14.109Z,16.53
2018-12-16T20:00:43.492Z,15.73
2018-12-16T20:03:12.722Z,15.73
2018-12-16T20:05:47.161Z,15.23
2018-12-16T20:08:16.377Z,16.50
2018-12-16T20:10:46.497Z,15.53
2018-12-16T20:13:15.588Z,16.07
2018-12-16T20:15:44.707Z,16.80
2018-12-16T20:18:14.237Z,16.53
2018-12-16T20:20:43.411Z,15.57
2018-12-16T20:23:12.482Z,16.40
2018-12-16T20:25:41.595Z,16.30
2018-12-16T20:28:11.024Z,15.70
2018-12-16T20:30:40.339Z,15.33
2018-12-16T20:33:09.656Z,16.87
2018-12-16T20:35:38.719Z,16.30
2018-12-16T20:38:08.227Z,16.17
2018-12-16T20:40:37.564Z,14.37
2018-12-16T20:43:06.718Z,14.83
2018-12-16T20:45:35.808Z,12.70
2018-12-16T20:48:04.919Z,13.87
2018-12-16T20:50:34.029Z,14.13
2018-12-16T20:53:03.179Z,13.83
2018-12-16T20:55:32.555Z,13.27
2018-12-16T20:58:01.655Z,13.73
2018-12-16T21:00:30.765Z,13.73
2018-12-16T21:02:59.861Z,13.33
2018-12-16T21:05:29.022Z,13.67
2018-12-16T21:07:59.212Z,13.80
2018-12-16T21:10:29.452Z,13.63
2018-12-16T21:13:03.787Z,13.03
2018-12-16T21:15:38.457Z,13.23
2018-12-16T21:18:13.012Z,13.17
2018-12-16T21:20:42.239Z,12.57
2018-12-16T21:23:12.517Z,12.13
2018-12-16T21:25:42.364Z,12.20
2018-12-16T21:28:11.483Z,12.63
2018-12-16T21:30:40.625Z,11.20
2018-12-16T21:33:09.718Z,13.07
2018-12-16T21:35:38.808Z,11.60
2018-12-16T21:38:09.026Z,12.17
2018-12-16T21:40:38.160Z,12.23
2018-12-16T21:43:07.304Z,12.30
2018-12-16T21:45:36.550Z,11.77
2018-12-16T21:48:05.818Z,11.70
2018-12-16T21:50:36.505Z,12.70
2018-12-16T21:53:05.592Z,12.17
2018-12-16T21:55:34.809Z,13.33
2018-12-16T21:58:04.535Z,11.77
2018-12-16T22:00:33.644Z,12.10
2018-12-16T22:03:03.375Z,11.93
2018-12-16T22:05:34.155Z,12.27
2018-12-16T22:08:03.475Z,11.77
2018-12-16T22:10:33.719Z,12.60
2018-12-16T22:13:03.004Z,12.60
2018-12-16T22:15:32.422Z,11.77
2018-12-16T22:18:01.526Z,13.17
2018-12-16T22:20:31.012Z,11.77
2018-12-16T22:23:00.106Z,11.17
2018-12-16T22:25:29.222Z,13.03
2018-12-16T22:27:58.353Z,12.77
2018-12-16T22:30:27.527Z,12.90
2018-12-16T22:32:56.594Z,15.17
2018-12-16T22:35:25.684Z,15.50
2018-12-16T22:37:54.866Z,15.83
2018-12-16T22:40:24.104Z,15.97
2018-12-16T22:42:53.212Z,16.10
2018-12-16T22:45:22.313Z,15.20
2018-12-16T22:47:51.439Z,14.87
2018-12-16T22:50:20.662Z,15.63
2018-12-16T22:52:49.764Z,16.37
2018-12-16T22:55:18.946Z,16.13
2018-12-16T22:57:48.030Z,15.27
2018-12-16T23:00:17.325Z,15.70
2018-12-16T23:02:46.652Z,17.27
2018-12-16T23:05:15.861Z,15.37
2018-12-16T23:07:44.947Z,15.47
2018-12-16T23:10:14.033Z,13.90
2018-12-16T23:12:43.131Z,14.10
2018-12-16T23:16:43.351Z,14.03
2018-12-16T23:19:12.769Z,12.67
2018-12-16T23:21:41.987Z,13.00
2018-12-16T23:24:11.083Z,13.53
2018-12-16T23:26:40.189Z,12.97
2018-12-16T23:29:09.261Z,12.83
2018-12-16T23:31:39.491Z,12.80
2018-12-16T23:34:08.652Z,13.40
2018-12-16T23:36:37.987Z,12.47
2018-12-16T23:39:07.702Z,12.13
2018-12-16T23:41:37.983Z,11.90
2018-12-16T23:44:07.297Z,11.90
2018-12-16T23:46:37.452Z,11.90
2018-12-16T23:49:06.569Z,12.33
2018-12-16T23:51:36.267Z,12.27
2018-12-16T23:54:05.488Z,10.90
2018-12-16T23:56:34.720Z,12.23
2018-12-16T23:59:03.928Z,11.17
